createdAt,value
2023-01-09T00:08:02.175Z,96170
2023-01-09T00:20:02.217Z,96180
2023-01-09T00:32:02.172Z,96190
2023-01-09T00:44:02.107Z,96190
2023-01-09T00:56:02.104Z,96170
2023-01-09T01:08:02.169Z,96150
2023-01-09T01:20:02.097Z,96160
2023-01-09T01:32:02.169Z,96160
2023-01-09T01:44:02.160Z,96150
2023-01-09T01:56:02.218Z,96150
2023-01-09T02:08:02.103Z,96180
2023-01-09T02:20:02.179Z,96180
2023-01-09T02:32:02.229Z,96180
2023-01-09T02:44:02.115Z,96200
2023-01-09T02:56:02.107Z,96220
2023-01-09T03:08:02.106Z,96220
2023-01-09T03:20:02.098Z,96230
2023-01-09T03:32:02.111Z,96260
2023-01-09T03:44:02.106Z,96290
2023-01-09T03:56:02.186Z,96310
2023-01-09T04:08:02.160Z,96300
2023-01-09T04:20:02.096Z,96300
2023-01-09T04:32:02.133Z,96330
2023-01-09T04:44:02.126Z,96320
2023-01-09T04:56:02.121Z,96330
2023-01-09T05:08:02.124Z,96330
2023-01-09T05:20:02.106Z,96360
2023-01-09T05:32:02.128Z,96380
2023-01-09T05:44:02.174Z,96390
2023-01-09T05:56:02.102Z,96390
2023-01-09T06:08:02.113Z,96410
2023-01-09T06:20:02.195Z,96410
2023-01-09T06:32:02.192Z,96420
2023-01-09T06:44:02.170Z,96420
2023-01-09T06:56:02.172Z,96430
2023-01-09T07:08:02.226Z,96440
2023-01-09T07:20:02.101Z,96450
2023-01-09T07:32:02.136Z,96450
2023-01-09T07:44:02.199Z,96460
2023-01-09T07:56:02.105Z,96470
2023-01-09T08:08:02.137Z,96460
2023-01-09T08:20:02.200Z,96490
2023-01-09T08:32:02.154Z,96470
2023-01-09T08:44:02.187Z,96470
2023-01-09T08:56:02.110Z,96480
2023-01-09T09:08:02.201Z,96500
2023-01-09T09:20:02.217Z,96520
2023-01-09T09:32:02.151Z,96520
2023-01-09T09:44:02.144Z,96520
2023-01-09T09:56:02.106Z,96510
2023-01-09T10:08:14.958Z,96520
2023-01-09T10:20:02.103Z,96520
2023-01-09T10:32:02.187Z,96530
2023-01-09T10:44:02.149Z,96530
2023-01-09T10:56:02.107Z,96530
2023-01-09T11:08:02.113Z,96560
2023-01-09T11:20:02.188Z,96530
2023-01-09T11:32:02.139Z,96550
2023-01-09T11:44:02.162Z,96550
2023-01-09T11:56:02.115Z,96560
2023-01-09T12:08:02.222Z,96560
2023-01-09T12:20:02.194Z,96580
2023-01-09T12:32:02.246Z,96580
2023-01-09T12:44:02.181Z,96570
2023-01-09T12:56:02.142Z,96580
2023-01-09T13:08:02.179Z,96580
2023-01-09T13:20:02.204Z,96590
2023-01-09T13:32:02.150Z,96590
2023-01-09T13:44:02.180Z,96610
2023-01-09T13:56:02.232Z,96630
2023-01-09T14:08:02.110Z,96640
2023-01-09T14:20:02.209Z,96670
2023-01-09T14:32:04.370Z,96680
2023-01-09T14:44:02.218Z,96730
2023-01-09T14:56:02.552Z,96750
2023-01-09T15:08:02.130Z,96770
2023-01-09T15:20:02.123Z,96790
2023-01-09T15:32:02.325Z,96800
2023-01-09T15:44:02.201Z,96830
2023-01-09T15:56:02.108Z,96850
2023-01-09T16:08:02.177Z,96880
2023-01-09T16:20:02.179Z,96920
2023-01-09T16:32:02.281Z,96940
2023-01-09T16:44:02.102Z,96980
2023-01-09T16:56:02.282Z,96990
2023-01-09T17:08:02.114Z,97010
2023-01-09T17:20:02.113Z,97050
2023-01-09T17:32:02.175Z,97060
2023-01-09T17:44:02.206Z,97080
2023-01-09T17:56:02.207Z,97080
2023-01-09T18:08:02.185Z,97090
2023-01-09T18:20:02.109Z,97120
2023-01-09T18:32:02.294Z,97130
2023-01-09T18:44:02.179Z,97140
2023-01-09T18:56:02.150Z,97170
2023-01-09T19:08:02.178Z,97160
2023-01-09T19:20:02.218Z,97200
2023-01-09T19:32:02.267Z,97220
2023-01-09T19:44:02.111Z,97240
2023-01-09T19:56:02.218Z,97250
2023-01-09T20:08:02.106Z,97280
2023-01-09T20:20:02.148Z,97300
2023-01-09T20:32:02.189Z,97320
2023-01-09T20:44:02.101Z,97340
2023-01-09T20:56:02.144Z,97350
2023-01-09T21:08:02.105Z,97360
2023-01-09T21:20:02.217Z,97380
2023-01-09T21:32:02.292Z,97410
2023-01-09T21:44:02.189Z,97440
2023-01-09T21:56:02.193Z,97470
2023-01-09T22:08:02.110Z,97490
2023-01-09T22:20:03.022Z,97520
2023-01-09T22:32:02.208Z,97540
2023-01-09T22:44:02.139Z,97570
2023-01-09T22:56:02.205Z,97610
2023-01-09T23:08:02.165Z,97620
2023-01-09T23:20:02.220Z,97630
2023-01-09T23:32:02.319Z,97650
2023-01-09T23:44:02.175Z,97670
2023-01-09T23:56:02.103Z,97690
